Time;durP1;ratioP1;P1;durP2;ratioP2;P2;SDS_P1;SDS_P2;PMS_P1;PMS_P2;Temp;Humidity;BMP_temperature;BMP_pressure;BME280_temperature;BME280_humidity;BME280_pressure;Samples;Min_cycle;Max_cycle;Signal;HPM_P1;HPM_P2
2022/02/06 00:01:42;;;;;;;4.30;2.27;;;;;;;1.74;92.70;151815.31;5085943;28;20466;-75
2022/02/06 00:04:17;;;;;;;2.73;1.80;;;;;;;1.67;92.43;151797.28;5062260;28;20790;-76
2022/02/06 00:06:53;;;;;;;3.47;2.20;;;;;;;1.71;91.81;151806.28;5079395;28;20442;-75
2022/02/06 00:09:29;;;;;;;4.00;2.33;;;;;;;1.69;91.24;151801.16;5067943;28;20481;-75
2022/02/06 00:12:05;;;;;;;2.10;1.90;;;;;;;1.70;92.12;151805.00;5081344;28;20448;-75
2022/02/06 00:14:40;;;;;;;3.67;2.17;;;;;;;1.70;90.92;151803.69;5083974;28;20454;-75
2022/02/06 00:17:17;;;;;;;3.47;2.10;;;;;;;1.64;92.63;151788.31;5087380;28;20951;-75
2022/02/06 00:19:53;;;;;;;3.53;2.17;;;;;;;1.64;91.17;151789.56;5080120;28;20458;-75
2022/02/06 00:22:34;;;;;;;2.93;1.70;;;;;;;1.67;91.81;151795.97;5089181;28;20441;-76
2022/02/06 00:25:20;;;;;;;2.80;1.80;;;;;;;1.64;91.27;151788.31;5091058;28;20469;-75
2022/02/06 00:28:11;;;;;;;3.03;2.00;;;;;;;1.68;90.95;151798.56;5095977;28;20448;-76
2022/02/06 00:30:57;;;;;;;2.50;1.97;;;;;;;1.66;92.70;151794.75;5092652;28;20442;-76
2022/02/06 00:33:41;;;;;;;2.60;1.90;;;;;;;1.63;93.09;151785.72;5101027;28;20494;-76
2022/02/06 00:39:16;;;;;;;3.30;1.90;;;;;;;1.68;93.74;151798.56;5075891;28;20446;-76
2022/02/06 00:41:52;;;;;;;4.90;1.87;;;;;;;1.62;93.46;151784.44;5101826;28;21014;-76
2022/02/06 00:44:28;;;;;;;2.60;1.60;;;;;;;1.71;93.26;151806.28;5103593;28;20856;-75
2022/02/06 00:47:04;;;;;;;2.80;2.27;;;;;;;1.69;92.01;151802.47;5088162;28;20453;-75
2022/02/06 00:49:43;;;;;;;2.70;2.03;;;;;;;1.72;92.59;151808.88;5097956;28;20872;-75
2022/02/06 00:52:25;;;;;;;2.50;1.97;;;;;;;1.71;91.96;151806.28;5106792;28;20507;-75
2022/02/06 00:55:00;;;;;;;2.50;1.70;;;;;;;1.72;92.18;151810.13;5082705;28;20451;-75
2022/02/06 00:57:36;;;;;;;3.10;2.03;;;;;;;1.72;91.55;151810.13;5104981;28;20450;-76
2022/02/06 01:00:12;;;;;;;5.50;1.83;;;;;;;1.74;92.32;151814.00;5104899;28;20460;-76
2022/02/06 01:02:48;;;;;;;3.70;2.00;;;;;;;1.72;91.48;151808.88;5102061;28;20438;-76
2022/02/06 01:05:25;;;;;;;3.17;1.57;;;;;;;1.75;92.24;151817.84;5105313;28;20456;-75
2022/02/06 01:08:01;;;;;;;2.50;1.60;;;;;;;1.78;92.18;151825.56;5108107;28;20483;-76
2022/02/06 01:10:36;;;;;;;4.83;1.57;;;;;;;1.88;91.45;151848.72;5101753;28;20453;-75
2022/02/06 01:13:21;;;;;;;2.57;1.53;;;;;;;1.89;92.63;151852.56;5099946;28;20456;-76
2022/02/06 01:16:01;;;;;;;4.00;2.07;;;;;;;1.88;91.84;151848.72;5105158;28;20544;-76
2022/02/06 01:18:41;;;;;;;3.00;1.60;;;;;;;1.88;91.73;151848.72;5090182;28;20481;-75
2022/02/06 01:21:26;;;;;;;3.40;1.87;;;;;;;1.88;92.52;151849.97;5106540;27;20846;-76
2022/02/06 01:24:06;;;;;;;4.07;2.00;;;;;;;1.94;92.50;151864.09;5109219;28;20922;-76
2022/02/06 01:26:46;;;;;;;3.40;1.80;;;;;;;1.96;91.56;151869.28;5109017;28;20544;-76
2022/02/06 01:29:33;;;;;;;3.00;1.70;;;;;;;1.96;91.24;151870.53;5109096;28;20959;-75
2022/02/06 01:32:13;;;;;;;5.97;2.30;;;;;;;1.95;92.28;151866.69;5111447;28;20471;-76
2022/02/06 01:34:58;;;;;;;2.87;1.60;;;;;;;2.00;91.64;151880.84;5100023;28;20469;-76
2022/02/06 01:37:40;;;;;;;2.70;2.10;;;;;;;2.06;90.98;151896.28;5108565;28;20450;-76
2022/02/06 01:40:28;;;;;;;3.30;1.80;;;;;;;2.05;92.30;151892.41;5103841;27;20449;-76
2022/02/06 01:43:07;;;;;;;4.30;2.00;;;;;;;2.03;91.86;151887.25;5105535;28;20469;-76
2022/02/06 01:46:15;;;;;;;4.47;2.03;;;;;;;2.08;92.77;151901.41;5106773;27;20437;-76
2022/02/06 02:01:00;;;;;;;3.40;1.63;;;;;;;2.07;92.26;151898.81;5000847;28;20492;-76
2022/02/06 02:03:44;;;;;;;2.53;1.60;;;;;;;2.10;92.48;151906.53;5008602;28;20439;-76
2022/02/06 02:06:50;;;;;;;3.90;1.73;;;;;;;2.16;92.63;151921.97;5072636;28;20461;-76
2022/02/06 02:09:51;;;;;;;1.73;1.30;;;;;;;2.15;91.54;151918.09;5116683;27;20452;-76
2022/02/06 02:18:44;;;;;;;5.87;1.73;;;;;;;2.18;92.26;151925.81;5111233;27;20441;-76
2022/02/06 02:24:43;;;;;;;3.30;1.50;;;;;;;2.21;92.45;151934.84;5095481;27;20441;-76
2022/02/06 02:27:28;;;;;;;2.43;1.60;;;;;;;2.19;91.83;151929.72;5101617;28;20537;-76
2022/02/06 02:47:24;;;;;;;2.17;1.20;;;;;;;2.14;91.94;151916.84;5092312;28;20553;-75
2022/02/06 02:50:05;;;;;;;2.93;1.40;;;;;;;2.17;92.51;151923.28;5121784;27;20443;-75
2022/02/06 02:52:57;;;;;;;2.37;1.63;;;;;;;2.20;92.22;151932.25;5084710;28;20470;-75
2022/02/06 02:55:52;;;;;;;1.60;1.10;;;;;;;2.21;92.51;151933.53;5108521;28;20462;-75
2022/02/06 02:58:43;;;;;;;2.17;1.13;;;;;;;2.20;91.70;151932.25;5084072;28;20836;-75
2022/02/06 03:01:26;;;;;;;2.70;1.60;;;;;;;2.21;91.20;151934.84;5107741;27;20449;-76
2022/02/06 03:04:02;;;;;;;2.47;1.70;;;;;;;2.23;90.92;151939.97;5088749;28;20588;-76
2022/02/06 03:06:37;;;;;;;2.40;1.67;;;;;;;2.28;90.50;151951.53;5093400;28;20776;-75
2022/02/06 03:09:14;;;;;;;1.83;1.03;;;;;;;2.28;90.77;151952.81;5101127;27;20445;-75
2022/02/06 03:11:51;;;;;;;2.27;1.20;;;;;;;2.30;89.52;151956.72;5122403;27;20450;-76
2022/02/06 03:14:39;;;;;;;3.27;1.70;;;;;;;2.33;89.04;151965.66;5104566;27;20515;-76
2022/02/06 03:17:31;;;;;;;1.93;1.37;;;;;;;2.29;89.38;151955.41;5103624;28;20453;-75
2022/02/06 03:20:10;;;;;;;1.83;1.20;;;;;;;2.36;89.25;151973.41;5104097;28;20442;-76
2022/02/06 03:22:50;;;;;;;2.37;1.60;;;;;;;2.37;89.40;151974.69;5104949;27;20466;-76
2022/02/06 03:25:26;;;;;;;2.73;1.73;;;;;;;2.40;88.85;151983.72;5086925;28;20514;-76
2022/02/06 03:28:03;;;;;;;5.60;1.70;;;;;;;2.38;89.60;151977.28;5090118;28;21003;-76
2022/02/06 03:30:39;;;;;;;2.30;1.43;;;;;;;2.37;89.55;151976.00;5108864;28;20445;-77
2022/02/06 03:33:15;;;;;;;6.03;1.47;;;;;;;2.35;90.75;151970.84;5084298;28;20544;-76
2022/02/06 03:35:50;;;;;;;3.03;1.50;;;;;;;2.33;89.53;151964.44;5106285;28;20436;-76
2022/02/06 03:38:26;;;;;;;3.33;1.20;;;;;;;2.34;89.97;151968.25;5090391;28;20930;-76
2022/02/06 03:41:05;;;;;;;1.50;1.30;;;;;;;2.33;90.00;151964.44;5105630;28;20462;-76
2022/02/06 03:43:51;;;;;;;3.27;1.87;;;;;;;2.34;90.45;151968.25;5089622;28;20521;-76
2022/02/06 03:46:30;;;;;;;2.57;1.30;;;;;;;2.36;90.76;151973.41;5085126;28;20449;-76
2022/02/06 03:49:11;;;;;;;1.40;1.10;;;;;;;2.45;90.32;151995.28;5081469;28;20454;-76
2022/02/06 03:52:05;;;;;;;1.50;1.00;;;;;;;2.40;90.06;151983.72;5076046;28;20504;-76
2022/02/06 03:54:40;;;;;;;5.53;2.40;;;;;;;2.43;90.57;151990.13;5031615;28;20467;-75
2022/02/06 03:57:15;;;;;;;3.10;1.60;;;;;;;2.43;89.75;151991.44;5062559;28;20451;-76
2022/02/06 03:59:53;;;;;;;2.20;1.40;;;;;;;2.46;90.21;151999.09;5065071;28;20471;-76
2022/02/06 04:02:28;;;;;;;2.40;1.40;;;;;;;2.47;92.10;152000.41;5060111;28;20963;-76
2022/02/06 04:05:04;;;;;;;4.33;1.33;;;;;;;2.46;91.58;151999.09;5058253;28;20973;-76
2022/02/06 04:07:40;;;;;;;4.63;1.20;;;;;;;2.50;91.02;152008.13;5037971;28;20459;-76
2022/02/06 04:10:17;;;;;;;6.50;1.60;;;;;;;2.51;91.21;152010.72;5092717;27;20963;-75
2022/02/06 04:12:53;;;;;;;1.80;1.30;;;;;;;2.47;92.08;152001.69;5104540;28;20477;-76
2022/02/06 04:15:40;;;;;;;2.80;1.63;;;;;;;2.53;90.60;152015.84;5104290;28;20518;-76
2022/02/06 04:18:21;;;;;;;3.53;1.50;;;;;;;2.57;91.26;152024.88;5082175;28;20933;-76
2022/02/06 04:20:58;;;;;;;2.23;1.30;;;;;;;2.55;91.23;152019.69;5082895;28;20458;-76
2022/02/06 04:23:34;;;;;;;2.17;1.00;;;;;;;2.57;90.70;152026.13;5102499;28;20480;-76
2022/02/06 04:26:09;;;;;;;2.63;1.60;;;;;;;2.64;91.78;152042.84;5107135;28;20782;-76
2022/02/06 04:28:45;;;;;;;3.40;1.80;;;;;;;2.61;91.08;152035.13;5088746;28;20840;-76
2022/02/06 04:31:22;;;;;;;2.60;1.40;;;;;;;2.62;90.96;152037.72;5103493;28;20458;-76
2022/02/06 04:33:58;;;;;;;3.80;1.20;;;;;;;2.61;91.75;152036.44;5100085;28;20473;-76
2022/02/06 04:36:40;;;;;;;1.40;1.27;;;;;;;2.67;90.97;152050.56;5085125;28;20477;-76
2022/02/06 04:39:38;;;;;;;4.93;1.73;;;;;;;2.74;90.75;152068.56;5088572;28;20458;-76
2022/02/06 04:42:23;;;;;;;2.53;1.20;;;;;;;2.75;90.41;152071.16;5105293;28;20826;-76
2022/02/06 05:14:33;;;;;;;2.53;1.60;;;;;;;2.84;90.66;152094.28;5094745;28;20468;-77
2022/02/06 05:20:43;;;;;;;4.33;1.67;;;;;;;2.92;89.76;152116.16;5102822;28;20537;-77
2022/02/06 05:26:33;;;;;;;1.87;1.47;;;;;;;2.92;90.29;152114.88;5103164;28;20960;-77
2022/02/06 05:29:19;;;;;;;2.33;1.60;;;;;;;2.93;89.93;152117.47;5084346;28;20454;-77
2022/02/06 05:32:02;;;;;;;3.03;1.20;;;;;;;2.95;89.13;152123.91;5096616;28;20497;-77
2022/02/06 05:34:38;;;;;;;6.00;1.80;;;;;;;2.94;90.63;152121.31;5105030;28;20473;-77
2022/02/06 05:37:14;;;;;;;10.57;1.70;;;;;;;2.94;91.16;152120.00;5097759;28;20435;-77
2022/02/06 05:39:51;;;;;;;3.73;1.27;;;;;;;2.90;90.58;152111.03;5090071;28;20458;-77
2022/02/06 05:42:26;;;;;;;4.93;1.83;;;;;;;2.96;90.01;152125.19;5105652;28;20460;-77
2022/02/06 05:45:02;;;;;;;2.80;1.73;;;;;;;2.94;91.36;152120.00;5102752;28;20461;-77
2022/02/06 05:47:38;;;;;;;4.67;1.50;;;;;;;2.91;91.06;152113.56;5088721;28;20449;-77
2022/02/06 05:50:14;;;;;;;2.47;1.60;;;;;;;2.91;91.74;152112.34;5105888;28;20481;-77
2022/02/06 05:52:50;;;;;;;2.43;1.53;;;;;;;2.88;92.12;152105.91;5106665;28;20457;-77
2022/02/06 05:55:28;;;;;;;2.40;1.70;;;;;;;2.91;92.82;152112.34;5106271;28;20446;-77
2022/02/06 05:58:03;;;;;;;2.53;1.70;;;;;;;2.95;91.22;152123.91;5087245;28;21066;-77
2022/02/06 06:00:39;;;;;;;8.13;2.27;;;;;;;2.97;91.00;152127.75;5099137;28;20458;-76
2022/02/06 06:03:27;;;;;;;3.37;2.23;;;;;;;3.01;90.40;152138.06;5106699;28;20447;-77
2022/02/06 06:06:02;;;;;;;1.90;1.23;;;;;;;3.04;90.27;152147.03;5090137;28;20475;-75
2022/02/06 06:08:38;;;;;;;2.10;1.33;;;;;;;3.04;91.38;152145.78;5108712;27;20491;-75
2022/02/06 06:11:15;;;;;;;3.63;1.83;;;;;;;3.09;89.79;152158.66;5123669;27;20458;-77
2022/02/06 06:13:51;;;;;;;4.67;1.47;;;;;;;3.13;89.78;152167.63;5089295;28;20457;-77
2022/02/06 06:16:26;;;;;;;4.57;1.60;;;;;;;3.14;89.51;152171.50;5107581;28;20442;-76
2022/02/06 06:19:03;;;;;;;4.43;1.70;;;;;;;3.10;90.69;152159.94;5106063;27;20537;-77
2022/02/06 06:21:42;;;;;;;4.60;1.70;;;;;;;3.13;90.15;152168.91;5097414;28;20444;-76
2022/02/06 06:24:18;;;;;;;2.50;1.47;;;;;;;3.10;90.46;152161.19;5108477;27;20439;-77
2022/02/06 06:26:56;;;;;;;4.73;1.90;;;;;;;3.14;90.11;152170.22;5093533;28;20518;-77
2022/02/06 06:29:31;;;;;;;2.67;1.53;;;;;;;3.13;90.00;152168.91;5102648;27;20450;-77
2022/02/06 06:32:08;;;;;;;2.80;1.73;;;;;;;3.20;90.48;152186.97;5110332;28;20439;-77
2022/02/06 06:34:43;;;;;;;3.10;1.93;;;;;;;3.20;90.38;152186.97;5103528;28;20471;-77
2022/02/06 06:37:20;;;;;;;1.77;1.37;;;;;;;3.26;89.45;152202.38;5087042;28;20438;-77
2022/02/06 06:39:56;;;;;;;1.90;1.40;;;;;;;3.26;90.78;152202.38;5093218;28;20433;-77
2022/02/06 06:42:33;;;;;;;4.70;1.70;;;;;;;3.25;89.60;152199.81;5085432;28;20451;-77
2022/02/06 06:45:10;;;;;;;4.13;1.57;;;;;;;3.23;90.83;152194.63;5106977;27;20447;-77
2022/02/06 06:47:50;;;;;;;4.90;1.60;;;;;;;3.24;90.13;152195.94;5102884;28;20483;-77
2022/02/06 06:50:32;;;;;;;2.40;1.50;;;;;;;3.25;89.53;152199.81;5099115;28;20836;-77
2022/02/06 06:53:10;;;;;;;2.20;1.40;;;;;;;3.24;90.05;152197.22;5118460;27;21015;-77
2022/02/06 06:55:51;;;;;;;1.33;1.00;;;;;;;3.23;90.84;152194.63;5092455;28;20451;-77
2022/02/06 06:58:28;;;;;;;3.53;1.70;;;;;;;3.26;89.56;152202.38;5117914;27;20558;-77
2022/02/06 07:01:20;;;;;;;3.37;1.33;;;;;;;3.23;89.05;152193.41;5092180;28;20462;-77
2022/02/06 07:03:55;;;;;;;3.57;1.37;;;;;;;3.27;89.46;152204.97;5095246;28;20440;-77
2022/02/06 07:06:31;;;;;;;2.70;1.10;;;;;;;3.34;88.66;152222.97;5084157;28;20457;-77
2022/02/06 07:09:09;;;;;;;7.83;1.77;;;;;;;3.36;88.01;152228.09;5106816;27;20451;-77
2022/02/06 07:11:46;;;;;;;3.40;1.70;;;;;;;3.36;88.69;152228.09;5090505;28;20793;-76
2022/02/06 07:14:23;;;;;;;2.93;1.30;;;;;;;3.37;88.82;152230.69;5090036;28;20508;-77
2022/02/06 07:16:59;;;;;;;2.23;1.20;;;;;;;3.38;89.17;152233.28;5102243;28;20450;-77
2022/02/06 07:19:34;;;;;;;3.50;1.30;;;;;;;3.40;87.98;152238.41;5085680;27;20453;-77
2022/02/06 07:22:14;;;;;;;2.40;1.63;;;;;;;3.41;88.55;152239.72;5088449;28;20458;-77
2022/02/06 07:24:52;;;;;;;1.93;1.40;;;;;;;3.47;87.36;152256.44;5106034;28;20447;-77
2022/02/06 07:27:31;;;;;;;2.30;1.30;;;;;;;3.50;87.32;152262.84;5104696;28;20442;-77
2022/02/06 07:30:10;;;;;;;2.20;1.50;;;;;;;3.52;86.71;152269.28;5083006;27;20456;-77
2022/02/06 07:32:45;;;;;;;6.10;1.83;;;;;;;3.54;88.19;152274.47;5096019;28;20896;-77
2022/02/06 07:35:22;;;;;;;6.20;1.60;;;;;;;3.63;86.52;152297.63;5096012;28;20586;-77
2022/02/06 07:37:58;;;;;;;2.43;1.30;;;;;;;3.62;87.92;152295.06;5084216;27;20455;-77
2022/02/06 07:40:34;;;;;;;2.70;1.30;;;;;;;3.62;87.86;152295.06;5091404;28;20502;-79
2022/02/06 07:43:10;;;;;;;2.63;1.33;;;;;;;3.67;87.49;152307.94;5086889;28;20447;-77
2022/02/06 07:45:49;;;;;;;6.73;1.90;;;;;;;3.66;86.95;152305.34;5100116;27;20451;-77
2022/02/06 07:48:24;;;;;;;2.47;1.20;;;;;;;3.66;88.06;152305.34;5098126;27;20692;-77
2022/02/06 07:51:00;;;;;;;3.33;1.97;;;;;;;3.76;86.80;152328.53;5099105;28;20451;-77
2022/02/06 07:53:36;;;;;;;3.33;1.73;;;;;;;3.82;87.04;152345.25;5085618;28;20765;-77
2022/02/06 07:56:13;;;;;;;5.73;1.40;;;;;;;3.83;88.21;152347.84;5103935;28;21141;-77
2022/02/06 07:58:48;;;;;;;3.83;1.53;;;;;;;3.85;87.20;152353.00;5101615;28;20442;-77
2022/02/06 08:01:25;;;;;;;2.80;1.43;;;;;;;3.87;87.72;152356.81;5098037;27;20544;-77
2022/02/06 08:04:01;;;;;;;3.10;1.40;;;;;;;3.85;88.11;152353.00;5104972;27;20439;-77
2022/02/06 08:06:37;;;;;;;3.60;1.97;;;;;;;3.90;88.41;152364.56;5080328;28;20444;-77
2022/02/06 08:09:12;;;;;;;3.13;1.87;;;;;;;3.92;88.50;152369.75;5106903;28;20439;-77
2022/02/06 08:11:48;;;;;;;3.40;1.50;;;;;;;3.95;89.25;152377.44;5107076;28;20438;-77
2022/02/06 08:17:14;;;;;;;2.73;1.43;;;;;;;4.09;88.20;152413.50;5103576;28;20470;-77
2022/02/06 08:19:49;;;;;;;3.43;1.47;;;;;;;4.02;88.46;152396.78;5104632;28;20545;-78
2022/02/06 08:22:26;;;;;;;3.13;1.60;;;;;;;4.09;87.88;152413.50;5091748;28;20446;-77
2022/02/06 08:25:01;;;;;;;4.47;1.50;;;;;;;4.10;86.72;152416.09;5083613;28;20452;-77
2022/02/06 08:27:37;;;;;;;5.10;1.60;;;;;;;4.19;87.07;152440.56;5086612;28;20524;-77
2022/02/06 08:30:14;;;;;;;3.37;1.40;;;;;;;4.20;86.59;152441.84;5105958;28;20452;-77
2022/02/06 08:32:50;;;;;;;3.20;1.80;;;;;;;4.23;85.36;152449.59;5103496;27;21123;-77
2022/02/06 08:35:26;;;;;;;3.60;1.70;;;;;;;4.23;86.56;152449.59;5103477;28;20478;-83
2022/02/06 08:38:01;;;;;;;3.07;1.47;;;;;;;4.28;86.56;152463.75;5105339;27;20524;-79
2022/02/06 08:40:37;;;;;;;2.57;1.47;;;;;;;4.36;86.25;152481.78;5089798;28;20463;-79
2022/02/06 08:43:13;;;;;;;2.47;1.60;;;;;;;4.40;87.03;152493.34;5097197;28;21215;-79
2022/02/06 08:45:48;;;;;;;3.80;1.60;;;;;;;4.40;86.01;152493.34;5085973;28;20455;-80
2022/02/06 08:48:25;;;;;;;2.90;1.40;;;;;;;4.53;85.82;152525.53;5101851;28;20449;-79
2022/02/06 08:51:01;;;;;;;2.53;1.23;;;;;;;4.64;86.73;152555.19;5102641;28;20443;-79
2022/02/06 08:53:36;;;;;;;3.17;1.33;;;;;;;4.67;85.71;152561.63;5103975;27;20466;-80
2022/02/06 08:56:12;;;;;;;4.57;1.30;;;;;;;4.71;86.40;152573.22;5100196;28;20479;-80
2022/02/06 08:58:47;;;;;;;2.30;1.50;;;;;;;4.73;86.22;152578.41;5099652;28;20558;-80
2022/02/06 09:01:23;;;;;;;3.57;1.70;;;;;;;4.78;85.57;152591.28;5091926;28;21119;-80
2022/02/06 09:04:00;;;;;;;3.23;1.37;;;;;;;4.88;84.96;152615.75;5100481;28;20852;-79
2022/02/06 09:06:37;;;;;;;2.87;1.50;;;;;;;5.01;82.46;152647.97;5104588;28;20443;-80
2022/02/06 09:09:14;;;;;;;1.97;1.40;;;;;;;5.01;84.10;152649.25;5105449;28;20443;-80
2022/02/06 09:11:52;;;;;;;1.80;1.27;;;;;;;5.06;84.24;152660.84;5094340;28;20448;-80
2022/02/06 09:14:28;;;;;;;3.43;1.53;;;;;;;5.08;83.16;152666.03;5086284;28;20571;-80
2022/02/06 09:17:04;;;;;;;1.80;1.47;;;;;;;5.14;83.96;152681.47;5079948;28;20852;-80
2022/02/06 09:19:41;;;;;;;4.33;1.43;;;;;;;5.10;83.65;152671.19;5102443;28;20460;-78
2022/02/06 09:22:17;;;;;;;2.87;1.30;;;;;;;5.13;82.77;152678.94;5101016;28;20817;-78
2022/02/06 09:24:53;;;;;;;2.27;1.10;;;;;;;5.13;83.29;152678.94;5096689;28;20500;-78
2022/02/06 09:27:28;;;;;;;2.40;1.30;;;;;;;5.10;83.27;152671.19;5102818;28;20973;-77
2022/02/06 09:30:04;;;;;;;3.03;1.70;;;;;;;5.12;83.88;152676.31;5102146;28;20466;-77
2022/02/06 09:35:16;;;;;;;3.80;1.10;;;;;;;5.17;83.61;152689.22;5061494;28;20816;-78
2022/02/06 09:37:52;;;;;;;2.47;1.47;;;;;;;5.15;83.55;152685.38;5078661;28;20449;-78
2022/02/06 09:40:32;;;;;;;1.73;1.23;;;;;;;5.19;85.27;152694.41;5068221;28;20460;-77
2022/02/06 09:43:07;;;;;;;4.43;1.67;;;;;;;5.20;83.51;152696.94;5062165;28;20878;-78
2022/02/06 09:45:43;;;;;;;1.77;1.50;;;;;;;5.24;82.74;152707.28;5086897;28;20738;-78
2022/02/06 09:48:22;;;;;;;3.10;1.63;;;;;;;5.32;84.60;152727.91;5080552;28;20876;-78
2022/02/06 09:50:59;;;;;;;4.33;1.80;;;;;;;5.32;85.28;152727.91;5086554;28;20538;-77
2022/02/06 09:53:36;;;;;;;4.73;1.27;;;;;;;5.38;83.70;152743.34;5068818;28;20450;-77
2022/02/06 09:56:12;;;;;;;2.70;1.50;;;;;;;5.45;83.05;152761.44;5075694;28;20479;-77
2022/02/06 09:58:59;;;;;;;4.33;1.10;;;;;;;5.44;83.27;152760.13;5098625;28;20459;-77
2022/02/06 10:01:36;;;;;;;2.83;1.47;;;;;;;5.45;84.86;152761.44;5083931;28;20455;-77
2022/02/06 10:04:12;;;;;;;5.33;1.40;;;;;;;5.55;84.21;152787.22;5100986;28;20445;-77
2022/02/06 10:06:58;;;;;;;4.53;1.50;;;;;;;5.58;82.61;152793.66;5087581;28;20499;-78
2022/02/06 10:09:38;;;;;;;1.87;1.23;;;;;;;5.59;84.29;152797.50;5079900;28;20457;-77
2022/02/06 10:12:15;;;;;;;2.37;1.70;;;;;;;5.67;81.99;152818.16;5068587;28;20453;-77
2022/02/06 10:14:51;;;;;;;2.60;1.83;;;;;;;5.72;83.74;152831.03;5100690;28;20837;-78
2022/02/06 10:17:27;;;;;;;2.70;1.63;;;;;;;5.79;81.95;152849.13;5085033;28;20468;-78
2022/02/06 10:20:04;;;;;;;3.07;2.43;;;;;;;5.77;83.47;152842.69;5081280;28;20820;-77
2022/02/06 10:22:48;;;;;;;4.23;2.13;;;;;;;5.80;83.56;152851.66;5080593;28;21116;-77
2022/02/06 10:25:25;;;;;;;4.73;2.50;;;;;;;5.80;83.47;152851.66;5083105;28;20541;-78
2022/02/06 10:28:20;;;;;;;6.10;1.80;;;;;;;5.80;81.63;152851.66;5084129;28;20948;-78
2022/02/06 10:30:57;;;;;;;4.63;2.00;;;;;;;5.74;84.63;152836.22;5082227;28;20446;-77
2022/02/06 10:33:48;;;;;;;2.10;1.47;;;;;;;5.81;83.38;152854.28;5086915;28;20481;-78
2022/02/06 10:36:25;;;;;;;2.40;1.30;;;;;;;5.88;82.52;152871.06;5081850;28;20480;-77
2022/02/06 10:39:03;;;;;;;3.27;1.33;;;;;;;5.90;81.47;152877.56;5106215;28;20444;-77
2022/02/06 10:41:45;;;;;;;3.00;1.50;;;;;;;5.95;82.95;152890.44;5085914;28;20445;-77
2022/02/06 10:44:20;;;;;;;3.00;1.83;;;;;;;5.94;83.11;152887.84;5105355;28;20483;-78
2022/02/06 10:46:58;;;;;;;2.37;1.40;;;;;;;5.97;82.65;152895.59;5084047;28;20790;-77
2022/02/06 10:49:34;;;;;;;2.10;1.60;;;;;;;5.93;82.14;152884.00;5101116;28;21031;-77
2022/02/06 10:52:12;;;;;;;3.30;1.80;;;;;;;5.95;82.54;152889.16;5105585;28;20456;-78
2022/02/06 10:54:49;;;;;;;2.50;1.20;;;;;;;5.91;82.41;152880.09;5102198;28;20564;-77
2022/02/06 10:57:28;;;;;;;1.40;1.23;;;;;;;5.97;84.67;152894.28;5085243;28;20456;-77
2022/02/06 11:00:05;;;;;;;2.27;1.27;;;;;;;6.04;83.50;152913.63;5104753;27;20444;-78
2022/02/06 11:02:56;;;;;;;4.00;1.17;;;;;;;6.13;83.24;152936.88;5102367;27;20437;-78
2022/02/06 11:05:47;;;;;;;1.87;1.27;;;;;;;6.15;82.81;152940.72;5098316;27;20444;-78
2022/02/06 11:08:29;;;;;;;3.20;1.73;;;;;;;6.13;82.12;152935.59;5084410;28;20449;-78
2022/02/06 11:11:08;;;;;;;2.20;1.17;;;;;;;6.19;84.46;152949.78;5104427;27;20623;-77
2022/02/06 11:13:43;;;;;;;2.47;1.70;;;;;;;6.20;81.62;152952.31;5084122;28;20455;-78
2022/02/06 11:16:20;;;;;;;3.97;1.73;;;;;;;6.19;82.30;152949.78;5103722;27;20513;-77
2022/02/06 11:19:01;;;;;;;1.87;1.43;;;;;;;6.21;80.99;152954.94;5089607;28;20990;-78
2022/02/06 11:21:37;;;;;;;1.47;1.00;;;;;;;6.23;82.57;152961.38;5103454;28;20484;-78
2022/02/06 11:24:19;;;;;;;6.20;1.80;;;;;;;6.30;81.31;152979.41;5098691;27;20573;-77
2022/02/06 11:26:55;;;;;;;2.10;1.40;;;;;;;6.27;83.34;152970.41;5101523;28;20444;-77
2022/02/06 11:29:31;;;;;;;3.23;1.60;;;;;;;6.27;82.16;152970.41;5104438;27;20472;-78
2022/02/06 11:32:08;;;;;;;1.83;1.53;;;;;;;6.27;83.34;152970.41;5087516;28;20542;-78
2022/02/06 11:34:44;;;;;;;2.30;1.37;;;;;;;6.31;81.14;152982.03;5086726;27;20473;-78
2022/02/06 11:43:51;;;;;;;2.00;1.33;;;;;;;6.40;81.90;153005.28;5086775;28;20445;-77
2022/02/06 11:46:30;;;;;;;2.03;1.63;;;;;;;6.40;83.48;153003.97;5102871;28;20455;-76
2022/02/06 11:49:09;;;;;;;1.73;0.90;;;;;;;6.44;81.72;153014.28;5119462;27;20468;-77
2022/02/06 11:51:56;;;;;;;1.70;0.77;;;;;;;6.41;84.23;153006.53;5119730;27;20456;-76
2022/02/06 11:54:34;;;;;;;1.90;1.10;;;;;;;6.40;84.90;153003.97;5101393;28;20436;-77
2022/02/06 11:57:30;;;;;;;4.17;2.57;;;;;;;6.44;85.97;153014.28;5099685;28;20737;-76
2022/02/06 12:00:18;;;;;;;1.30;1.00;;;;;;;6.49;82.57;153027.16;5100022;28;21292;-77
2022/02/06 12:02:54;;;;;;;1.30;1.00;;;;;;;6.57;81.71;153049.13;5101093;28;20532;-76
2022/02/06 12:05:30;;;;;;;3.67;1.83;;;;;;;6.51;82.97;153032.38;5104213;27;20443;-77
2022/02/06 12:08:10;;;;;;;1.17;0.83;;;;;;;6.57;83.52;153049.13;5086282;28;20448;-76
2022/02/06 12:11:15;;;;;;;2.90;1.10;;;;;;;6.56;82.34;153045.25;5101294;27;20754;-77
2022/02/06 12:14:08;;;;;;;1.60;0.83;;;;;;;6.55;82.85;153043.97;5105538;28;20884;-77
2022/02/06 12:16:51;;;;;;;1.60;1.23;;;;;;;6.48;82.92;153025.91;5116464;27;20476;-76
2022/02/06 12:19:29;;;;;;;2.10;1.00;;;;;;;6.50;83.63;153029.75;5082895;28;20452;-76
2022/02/06 12:22:37;;;;;;;1.43;0.87;;;;;;;6.47;83.87;153022.00;5083347;28;20577;-77
2022/02/06 12:25:26;;;;;;;1.20;0.90;;;;;;;6.57;81.35;153047.81;5102996;28;21019;-76
2022/02/06 12:28:28;;;;;;;2.40;1.50;;;;;;;6.64;82.37;153065.91;5080377;28;20449;-77
2022/02/06 12:31:27;;;;;;;1.47;0.77;;;;;;;6.59;82.62;153053.00;5098570;28;20546;-77
2022/02/06 12:34:11;;;;;;;2.20;1.10;;;;;;;6.51;83.06;153033.63;5086343;28;20476;-77
2022/02/06 12:37:07;;;;;;;2.87;1.33;;;;;;;6.54;83.74;153040.13;5103183;27;20863;-76
2022/02/06 12:39:43;;;;;;;1.43;1.17;;;;;;;6.58;81.65;153050.41;5098519;28;20447;-77
2022/02/06 12:42:26;;;;;;;4.47;1.23;;;;;;;6.57;82.17;153047.81;5101516;28;20447;-77
2022/02/06 12:45:05;;;;;;;3.17;0.93;;;;;;;6.63;83.91;153063.31;5083578;28;20454;-77
2022/02/06 12:47:42;;;;;;;2.87;1.17;;;;;;;6.69;82.21;153078.81;5103058;28;20448;-77
2022/02/06 12:50:24;;;;;;;2.17;1.20;;;;;;;6.72;80.23;153086.56;5111091;27;20440;-76
2022/02/06 12:53:01;;;;;;;2.13;1.10;;;;;;;6.74;81.66;153091.72;5079679;28;20533;-77
2022/02/06 12:55:37;;;;;;;1.40;1.00;;;;;;;6.70;83.01;153081.38;5095738;28;20464;-77
2022/02/06 12:58:16;;;;;;;2.30;1.00;;;;;;;6.77;84.20;153098.19;5100482;28;20456;-77
2022/02/06 13:00:53;;;;;;;1.40;1.10;;;;;;;6.77;81.69;153098.19;5083878;28;20467;-76
2022/02/06 13:03:34;;;;;;;1.87;1.20;;;;;;;6.78;84.53;153102.03;5080619;28;20449;-77
2022/02/06 13:06:14;;;;;;;1.80;1.03;;;;;;;6.77;81.73;153098.19;5098148;28;20436;-77
2022/02/06 13:08:50;;;;;;;2.17;0.90;;;;;;;6.79;82.61;153104.63;5098331;28;20455;-76
2022/02/06 13:11:35;;;;;;;1.87;0.90;;;;;;;6.82;85.19;153111.06;5100369;28;20447;-77
2022/02/06 13:14:18;;;;;;;0.80;0.60;;;;;;;6.78;84.50;153102.03;5093121;28;20944;-77
2022/02/06 13:17:03;;;;;;;1.50;0.90;;;;;;;6.81;83.81;153109.78;5087602;28;20823;-76
2022/02/06 13:19:55;;;;;;;4.30;0.90;;;;;;;6.68;86.27;153076.22;5116505;27;20521;-76
2022/02/06 13:22:47;;;;;;;5.97;1.40;;;;;;;6.72;84.93;153087.81;5106656;28;20441;-76
2022/02/06 13:25:50;;;;;;;1.13;0.70;;;;;;;6.70;87.09;153081.38;5089596;28;20440;-76
2022/02/06 13:28:42;;;;;;;1.33;0.90;;;;;;;6.66;88.39;153072.38;5092964;27;20534;-79
2022/02/06 13:31:38;;;;;;;1.83;0.80;;;;;;;6.64;85.33;153065.91;5093091;28;20444;-78
2022/02/06 13:34:27;;;;;;;6.60;1.00;;;;;;;6.62;86.67;153060.72;5094255;27;20974;-78
2022/02/06 13:37:11;;;;;;;3.33;1.20;;;;;;;6.60;88.88;153055.56;5100496;28;20498;-78
2022/02/06 13:39:53;;;;;;;1.80;1.10;;;;;;;6.58;88.17;153050.41;5088810;28;20452;-78
2022/02/06 13:42:32;;;;;;;1.87;0.70;;;;;;;6.57;88.70;153047.81;5104060;27;20465;-78
2022/02/06 13:45:14;;;;;;;1.60;1.10;;;;;;;6.56;88.23;153045.25;5087718;28;20817;-78
2022/02/06 13:47:51;;;;;;;1.03;0.80;;;;;;;6.59;90.71;153053.00;5084670;28;20543;-78
2022/02/06 13:50:28;;;;;;;1.30;0.60;;;;;;;6.56;90.28;153045.25;5107940;27;20451;-78
2022/02/06 13:53:08;;;;;;;5.83;0.80;;;;;;;6.44;90.35;153015.56;5103088;28;20464;-78
2022/02/06 13:55:53;;;;;;;2.10;0.80;;;;;;;6.43;90.73;153011.72;5084161;28;20507;-79
2022/02/06 13:58:30;;;;;;;1.53;0.93;;;;;;;6.43;91.15;153013.03;5103597;27;21005;-79
2022/02/06 14:01:06;;;;;;;2.40;0.90;;;;;;;6.45;90.69;153016.88;5101306;28;20505;-78
2022/02/06 14:03:43;;;;;;;1.30;0.90;;;;;;;6.46;92.46;153019.47;5100111;27;20893;-78